createdAt,value
2022-11-27T00:02:15.077Z,14.32
2022-11-27T00:04:41.833Z,16.90
2022-11-27T00:07:08.411Z,16.05
2022-11-27T00:09:34.957Z,15.75
2022-11-27T00:12:01.573Z,14.20
2022-11-27T00:14:28.349Z,17.35
2022-11-27T00:16:55.025Z,13.73
2022-11-27T00:19:21.623Z,18.63
2022-11-27T00:21:48.300Z,16.83
2022-11-27T00:24:14.952Z,15.05
2022-11-27T00:26:41.600Z,17.27
2022-11-27T00:29:08.913Z,13.95
2022-11-27T00:31:37.565Z,18.58
2022-11-27T00:34:05.553Z,15.70
2022-11-27T00:36:33.650Z,16.33
2022-11-27T00:39:00.742Z,17.10
2022-11-27T00:41:29.200Z,15.43
2022-11-27T00:43:56.302Z,17.50
2022-11-27T00:46:28.455Z,17.63
2022-11-27T00:48:56.465Z,16.05
2022-11-27T00:51:23.518Z,17.33
2022-11-27T00:53:50.199Z,15.05
2022-11-27T00:56:21.009Z,14.25
2022-11-27T00:58:47.698Z,13.82
2022-11-27T01:01:18.889Z,10.40
2022-11-27T01:03:45.866Z,12.88
2022-11-27T01:06:12.905Z,12.40
2022-11-27T01:08:39.667Z,13.60
2022-11-27T01:11:06.453Z,10.85
2022-11-27T01:13:34.883Z,10.18
2022-11-27T01:16:03.230Z,10.25
2022-11-27T01:18:30.266Z,13.18
2022-11-27T01:20:56.977Z,10.90
2022-11-27T01:23:24.119Z,10.43
2022-11-27T01:25:52.997Z,10.43
2022-11-27T01:28:20.645Z,11.65
2022-11-27T01:30:47.392Z,8.85
2022-11-27T01:33:14.037Z,9.38
2022-11-27T01:35:40.696Z,9.18
2022-11-27T01:38:07.300Z,11.60
2022-11-27T01:40:33.999Z,11.80
2022-11-27T01:43:00.580Z,11.48
2022-11-27T01:45:27.228Z,10.60
2022-11-27T01:47:58.712Z,11.13
2022-11-27T01:50:28.394Z,13.82
2022-11-27T01:52:57.644Z,20.35
2022-11-27T01:55:30.091Z,15.02
2022-11-27T01:58:00.148Z,13.25
2022-11-27T02:00:27.553Z,15.48
2022-11-27T02:02:54.446Z,12.55
2022-11-27T02:05:23.450Z,13.40
2022-11-27T02:07:51.120Z,12.63
2022-11-27T02:10:17.943Z,11.88
2022-11-27T02:13:01.402Z,15.05
2022-11-27T02:15:37.473Z,13.52
2022-11-27T02:18:26.965Z,12.15
2022-11-27T02:20:55.787Z,14.38
2022-11-27T02:23:31.574Z,12.02
2022-11-27T02:26:01.022Z,13.75
2022-11-27T02:28:39.087Z,13.88
2022-11-27T02:31:18.874Z,12.88
2022-11-27T02:33:49.023Z,12.48
2022-11-27T02:36:19.763Z,14.13
2022-11-27T02:38:49.349Z,13.15
2022-11-27T02:41:28.653Z,13.40
2022-11-27T02:43:55.815Z,20.17
2022-11-27T02:46:23.219Z,18.90
2022-11-27T02:48:55.504Z,16.30
2022-11-27T02:51:23.694Z,26.95
2022-11-27T02:53:55.199Z,30.30
2022-11-27T02:56:23.987Z,18.13
2022-11-27T02:58:51.196Z,23.98
2022-11-27T03:01:19.134Z,38.33
2022-11-27T03:03:53.314Z,41.65
2022-11-27T03:06:29.822Z,31.23
2022-11-27T03:09:10.998Z,20.58
2022-11-27T03:11:37.799Z,16.38
2022-11-27T03:14:06.418Z,16.73
2022-11-27T03:16:51.980Z,17.27
2022-11-27T03:19:27.666Z,28.90
2022-11-27T03:21:58.426Z,21.73
2022-11-27T03:24:25.501Z,14.68
2022-11-27T03:26:52.419Z,16.95
2022-11-27T03:29:23.717Z,15.55
2022-11-27T03:31:50.629Z,14.77
2022-11-27T03:34:17.474Z,16.83
2022-11-27T03:36:45.490Z,16.50
2022-11-27T03:39:12.341Z,14.02
2022-11-27T03:41:42.503Z,16.83
2022-11-27T03:44:26.237Z,17.30
2022-11-27T03:46:52.852Z,15.88
2022-11-27T03:49:33.903Z,19.55
2022-11-27T03:52:03.258Z,14.45
2022-11-27T03:54:39.142Z,18.05
2022-11-27T03:57:13.079Z,16.45
2022-11-27T03:59:42.461Z,15.50
2022-11-27T04:02:15.833Z,14.40
2022-11-27T04:04:42.695Z,15.98
2022-11-27T04:07:16.099Z,13.63
2022-11-27T04:09:42.766Z,17.50
2022-11-27T04:12:09.366Z,13.63
2022-11-27T04:14:35.937Z,15.57
2022-11-27T04:17:02.549Z,13.88
2022-11-27T04:19:29.190Z,13.57
2022-11-27T04:21:55.936Z,13.32
2022-11-27T04:24:22.606Z,16.73
2022-11-27T04:26:49.342Z,16.02
2022-11-27T04:29:16.041Z,14.70
2022-11-27T04:31:42.673Z,13.55
2022-11-27T04:34:09.290Z,16.67
2022-11-27T04:36:39.218Z,13.27
2022-11-27T04:39:06.474Z,15.07
2022-11-27T04:41:33.044Z,14.93
2022-11-27T04:43:59.698Z,12.68
2022-11-27T04:46:26.402Z,14.82
2022-11-27T04:48:53.132Z,15.60
2022-11-27T04:51:19.789Z,13.32
2022-11-27T04:53:46.379Z,13.70
2022-11-27T04:56:13.051Z,11.90
2022-11-27T04:58:39.770Z,14.25
2022-11-27T05:01:08.277Z,12.98
2022-11-27T05:03:35.499Z,14.10
2022-11-27T05:06:02.156Z,13.85
2022-11-27T05:08:30.497Z,13.68
2022-11-27T05:11:04.397Z,15.40
2022-11-27T05:13:31.264Z,14.50
2022-11-27T05:15:57.911Z,14.00
2022-11-27T05:18:24.744Z,13.07
2022-11-27T05:20:58.651Z,12.80
2022-11-27T05:23:25.585Z,13.07
2022-11-27T05:25:52.565Z,13.38
2022-11-27T05:28:23.691Z,14.35
2022-11-27T05:30:53.216Z,13.13
2022-11-27T05:33:19.823Z,15.35
2022-11-27T05:35:46.473Z,13.43
2022-11-27T05:38:13.199Z,14.00
2022-11-27T05:40:39.929Z,16.30
2022-11-27T05:43:07.077Z,14.93
2022-11-27T05:45:33.696Z,13.55
2022-11-27T05:48:00.337Z,14.65
2022-11-27T05:50:26.956Z,15.98
2022-11-27T05:52:53.543Z,13.75
2022-11-27T05:55:20.201Z,16.75
2022-11-27T05:57:46.864Z,14.20
2022-11-27T06:00:14.241Z,14.57
2022-11-27T06:02:41.072Z,15.93
2022-11-27T06:05:08.125Z,16.77
2022-11-27T06:07:34.871Z,16.65
2022-11-27T06:10:01.542Z,16.27
2022-11-27T06:12:28.200Z,15.20
2022-11-27T06:14:54.758Z,15.18
2022-11-27T06:17:21.462Z,15.05
2022-11-27T06:19:48.623Z,15.05
2022-11-27T06:22:15.391Z,17.83
2022-11-27T06:24:42.351Z,15.73
2022-11-27T06:27:09.245Z,12.80
2022-11-27T06:29:37.109Z,19.45
2022-11-27T06:32:04.553Z,15.63
2022-11-27T06:34:31.265Z,16.67
2022-11-27T06:36:57.928Z,13.88
2022-11-27T06:39:24.540Z,16.08
2022-11-27T06:41:51.205Z,15.18
2022-11-27T06:44:17.851Z,16.80
2022-11-27T06:46:44.529Z,18.92
2022-11-27T06:49:12.766Z,18.20
2022-11-27T06:51:39.423Z,19.30
2022-11-27T06:54:06.075Z,17.90
2022-11-27T06:56:32.748Z,15.35
2022-11-27T06:59:00.218Z,17.50
2022-11-27T07:01:27.758Z,17.00
2022-11-27T07:03:54.388Z,18.33
2022-11-27T07:06:22.375Z,16.20
2022-11-27T07:08:49.115Z,14.30
2022-11-27T07:11:36.129Z,18.35
2022-11-27T07:14:04.634Z,24.95
2022-11-27T07:16:32.545Z,17.63
2022-11-27T07:19:00.504Z,21.42
2022-11-27T07:21:27.668Z,16.85
2022-11-27T07:23:56.514Z,15.52
2022-11-27T07:26:24.385Z,16.90
2022-11-27T07:28:51.378Z,15.63
2022-11-27T07:31:19.505Z,17.15
2022-11-27T07:33:46.265Z,18.73
2022-11-27T07:36:14.244Z,15.80
2022-11-27T07:38:40.937Z,17.52
2022-11-27T07:41:07.874Z,18.45
2022-11-27T07:43:34.950Z,16.80
2022-11-27T07:46:05.900Z,17.10
2022-11-27T07:48:32.748Z,15.23
2022-11-27T07:50:59.607Z,18.63
2022-11-27T07:53:26.335Z,14.77
2022-11-27T07:55:52.948Z,19.70
2022-11-27T07:58:19.573Z,15.73
2022-11-27T08:00:46.428Z,15.68
2022-11-27T08:03:13.082Z,15.95
2022-11-27T08:05:39.747Z,16.98
2022-11-27T08:08:06.451Z,19.20
2022-11-27T08:10:36.841Z,14.80
2022-11-27T08:13:03.468Z,16.25
2022-11-27T08:15:30.110Z,16.52
2022-11-27T08:17:57.101Z,15.60
2022-11-27T08:20:23.761Z,13.95
2022-11-27T08:22:50.789Z,15.18
2022-11-27T08:25:17.529Z,13.40
2022-11-27T08:27:44.195Z,14.00
2022-11-27T08:30:11.036Z,16.00
2022-11-27T08:32:41.918Z,15.35
2022-11-27T08:35:09.892Z,15.27
2022-11-27T08:37:36.968Z,15.80
2022-11-27T08:40:03.958Z,15.27
2022-11-27T08:42:30.806Z,17.45
2022-11-27T08:44:57.472Z,18.52
2022-11-27T08:47:24.160Z,19.33
2022-11-27T08:49:50.866Z,17.33
2022-11-27T08:52:17.561Z,15.88
2022-11-27T08:54:44.301Z,15.85
2022-11-27T08:57:10.902Z,20.52
2022-11-27T08:59:37.585Z,22.98
2022-11-27T09:02:04.292Z,18.83
2022-11-27T09:04:31.027Z,24.27
2022-11-27T09:06:58.744Z,21.17
2022-11-27T09:09:25.454Z,20.00
2022-11-27T09:11:54.089Z,20.00
2022-11-27T09:14:20.745Z,21.98
2022-11-27T09:16:47.573Z,18.85
2022-11-27T09:19:14.347Z,22.73
2022-11-27T09:21:40.986Z,21.80
2022-11-27T09:24:08.994Z,23.63
2022-11-27T09:26:35.719Z,20.55
2022-11-27T09:29:02.599Z,20.23
2022-11-27T09:31:29.310Z,20.63
2022-11-27T09:33:57.368Z,22.92
2022-11-27T09:36:24.976Z,19.23
2022-11-27T09:38:52.170Z,20.02
2022-11-27T09:41:39.297Z,18.10
2022-11-27T09:44:18.175Z,22.10
2022-11-27T09:46:45.272Z,20.50
2022-11-27T09:49:14.628Z,17.55
2022-11-27T09:51:48.069Z,17.25
2022-11-27T09:54:26.036Z,18.45
2022-11-27T09:56:54.006Z,20.17
2022-11-27T09:59:27.775Z,18.58
2022-11-27T10:01:54.545Z,21.52
2022-11-27T10:04:21.638Z,18.35
2022-11-27T10:07:07.030Z,19.95
2022-11-27T10:10:12.047Z,17.88
2022-11-27T10:12:57.262Z,18.17
2022-11-27T10:15:27.208Z,19.92
2022-11-27T10:17:53.809Z,19.50
2022-11-27T10:20:23.668Z,18.13
2022-11-27T10:22:50.393Z,19.25
2022-11-27T10:25:17.973Z,21.77
2022-11-27T10:27:47.457Z,18.90
2022-11-27T10:30:18.171Z,20.45
2022-11-27T10:32:55.063Z,23.25
2022-11-27T10:35:24.128Z,18.33
2022-11-27T10:37:53.954Z,16.98
2022-11-27T10:40:23.198Z,17.92
2022-11-27T10:42:58.795Z,17.75
2022-11-27T10:45:29.556Z,17.73
2022-11-27T10:47:56.476Z,17.02
2022-11-27T10:50:23.070Z,17.63
2022-11-27T10:52:53.475Z,18.52
2022-11-27T10:55:40.369Z,16.38
2022-11-27T10:58:20.696Z,16.35
2022-11-27T11:00:47.399Z,15.82
2022-11-27T11:03:17.068Z,17.55
2022-11-27T11:06:19.081Z,15.85
2022-11-27T11:08:41.536Z,17.75
2022-11-27T11:11:08.832Z,15.32
2022-11-27T11:13:41.542Z,16.70
2022-11-27T11:16:14.488Z,16.88
2022-11-27T11:18:42.883Z,14.77
2022-11-27T11:21:18.379Z,13.07
2022-11-27T11:23:53.115Z,15.50
2022-11-27T11:26:28.533Z,18.17
2022-11-27T11:28:56.534Z,14.45
2022-11-27T11:31:27.875Z,12.50
2022-11-27T11:33:59.438Z,16.35
2022-11-27T11:36:26.191Z,15.52
2022-11-27T11:38:53.373Z,16.50
2022-11-27T11:41:20.479Z,13.38
2022-11-27T11:44:01.702Z,13.05
2022-11-27T11:46:30.854Z,13.13
2022-11-27T11:49:00.392Z,13.60
2022-11-27T11:51:35.024Z,13.90
2022-11-27T11:54:13.715Z,14.43
2022-11-27T11:56:43.116Z,12.55
2022-11-27T11:59:20.893Z,12.60
2022-11-27T12:02:06.682Z,13.05
2022-11-27T12:04:54.084Z,14.45
2022-11-27T12:07:32.177Z,13.20
2022-11-27T12:10:08.064Z,12.20
2022-11-27T12:12:53.661Z,12.07
2022-11-27T12:15:31.722Z,11.75
2022-11-27T12:18:05.205Z,12.52
2022-11-27T12:20:34.906Z,11.50
2022-11-27T12:23:07.782Z,13.35
2022-11-27T12:25:52.891Z,12.13
2022-11-27T12:28:28.360Z,14.18
2022-11-27T12:31:04.147Z,22.27
2022-11-27T12:33:33.820Z,13.32
2022-11-27T12:36:07.624Z,12.05
2022-11-27T12:38:57.346Z,12.05
2022-11-27T12:41:47.304Z,12.05
2022-11-27T12:44:21.480Z,11.50
2022-11-27T12:47:17.401Z,11.88
2022-11-27T12:49:46.301Z,13.35
2022-11-27T12:52:16.018Z,14.05
2022-11-27T12:54:42.928Z,12.65
2022-11-27T12:57:13.487Z,11.93
2022-11-27T12:59:46.108Z,10.23
2022-11-27T13:02:23.811Z,9.63
2022-11-27T13:05:00.211Z,11.20
2022-11-27T13:07:29.540Z,12.38
2022-11-27T13:10:14.751Z,9.75
2022-11-27T13:13:00.084Z,10.57
2022-11-27T13:15:32.834Z,10.10
2022-11-27T13:18:16.028Z,14.68
2022-11-27T13:20:51.893Z,11.07
2022-11-27T13:23:20.609Z,10.20
2022-11-27T13:25:51.364Z,11.07
2022-11-27T13:28:26.593Z,8.80
2022-11-27T13:30:54.445Z,11.18
2022-11-27T13:33:41.350Z,10.70
2022-11-27T13:36:17.907Z,10.00
2022-11-27T13:38:45.308Z,10.73
2022-11-27T13:41:20.455Z,9.73
2022-11-27T13:43:47.676Z,9.48
2022-11-27T13:46:25.024Z,12.25
2022-11-27T13:48:54.268Z,12.40
2022-11-27T13:51:26.450Z,10.00
2022-11-27T13:53:53.323Z,8.73
2022-11-27T13:56:29.167Z,9.52
2022-11-27T13:58:55.839Z,13.05
2022-11-27T14:01:23.517Z,8.68
2022-11-27T14:03:50.705Z,9.27
2022-11-27T14:06:18.769Z,9.13
2022-11-27T14:08:53.178Z,9.30
2022-11-27T14:11:29.395Z,9.82
2022-11-27T14:13:56.614Z,9.35
2022-11-27T14:16:28.978Z,10.35
2022-11-27T14:19:01.018Z,11.02
2022-11-27T14:21:39.302Z,9.15
2022-11-27T14:24:24.847Z,11.32
2022-11-27T14:26:52.545Z,10.80
2022-11-27T14:29:23.006Z,12.48
2022-11-27T14:31:56.922Z,8.50
2022-11-27T14:34:30.907Z,10.18
2022-11-27T14:36:57.980Z,9.90
2022-11-27T14:39:30.489Z,10.68
2022-11-27T14:42:01.156Z,8.55
2022-11-27T14:44:28.037Z,37.78
2022-11-27T14:46:55.890Z,11.40
2022-11-27T14:49:24.772Z,9.90
2022-11-27T14:51:51.952Z,10.27
2022-11-27T14:54:26.068Z,11.18
2022-11-27T14:56:53.131Z,9.02
2022-11-27T14:59:21.100Z,10.85
2022-11-27T15:02:01.592Z,11.15
2022-11-27T15:04:33.116Z,9.05
2022-11-27T15:06:59.997Z,11.02
2022-11-27T15:09:43.205Z,11.38
2022-11-27T15:12:21.271Z,9.95
2022-11-27T15:14:55.408Z,11.20
2022-11-27T15:17:25.121Z,10.20
2022-11-27T15:19:51.853Z,9.73
2022-11-27T15:22:18.687Z,10.77
2022-11-27T15:24:45.579Z,9.23
2022-11-27T15:27:15.264Z,10.57
2022-11-27T15:30:00.110Z,11.90
2022-11-27T15:32:27.987Z,10.43
2022-11-27T15:34:54.640Z,11.00
2022-11-27T15:37:27.323Z,11.68
2022-11-27T15:39:55.353Z,10.88
2022-11-27T15:42:22.198Z,13.20
2022-11-27T15:44:52.665Z,11.57
2022-11-27T15:47:28.778Z,12.27
2022-11-27T15:49:55.921Z,12.65
2022-11-27T15:52:22.861Z,12.85
2022-11-27T15:54:49.811Z,10.45
2022-11-27T15:57:16.549Z,13.35
2022-11-27T15:59:43.247Z,12.80
2022-11-27T16:02:17.476Z,12.40
2022-11-27T16:04:44.939Z,13.25
2022-11-27T16:07:11.691Z,12.10
2022-11-27T16:09:39.772Z,11.00
2022-11-27T16:12:06.909Z,12.85
2022-11-27T16:14:33.553Z,13.43
2022-11-27T16:17:01.447Z,11.82
2022-11-27T16:19:28.215Z,11.55
2022-11-27T16:21:54.952Z,14.43
2022-11-27T16:24:21.644Z,15.75
2022-11-27T16:26:48.344Z,15.05
2022-11-27T16:29:15.240Z,11.95
2022-11-27T16:31:42.040Z,13.85
2022-11-27T16:34:08.876Z,24.90
2022-11-27T16:36:40.135Z,23.08
2022-11-27T16:39:07.079Z,16.90
2022-11-27T16:41:33.746Z,13.27
2022-11-27T16:44:00.316Z,14.77
2022-11-27T16:46:29.202Z,13.73
2022-11-27T16:48:56.719Z,12.25
2022-11-27T16:51:33.430Z,15.15
2022-11-27T16:54:01.360Z,14.68
2022-11-27T16:56:28.854Z,13.07
2022-11-27T16:59:02.303Z,12.55
2022-11-27T17:01:31.832Z,12.35
2022-11-27T17:04:02.930Z,12.45
2022-11-27T17:06:30.371Z,11.30
2022-11-27T17:08:58.371Z,11.48
2022-11-27T17:11:27.066Z,13.82
2022-11-27T17:13:57.702Z,11.45
2022-11-27T17:16:24.538Z,12.57
2022-11-27T17:18:52.401Z,14.35
2022-11-27T17:21:24.428Z,14.38
2022-11-27T17:23:51.671Z,10.98
2022-11-27T17:26:20.233Z,14.23
2022-11-27T17:28:47.010Z,11.68
2022-11-27T17:31:17.935Z,37.13
2022-11-27T17:33:44.777Z,27.80
2022-11-27T17:36:11.968Z,21.08
2022-11-27T17:38:38.616Z,16.38
2022-11-27T17:41:10.238Z,16.33
2022-11-27T17:43:37.454Z,15.07
2022-11-27T17:46:30.721Z,13.23
2022-11-27T17:48:59.198Z,13.73
2022-11-27T17:51:26.774Z,14.18
2022-11-27T17:53:53.597Z,11.77
2022-11-27T17:56:20.821Z,12.70
2022-11-27T17:58:48.999Z,11.32
2022-11-27T18:01:17.679Z,14.00
2022-11-27T18:03:46.460Z,12.95
2022-11-27T18:06:15.404Z,10.52
2022-11-27T18:08:42.139Z,9.98
2022-11-27T18:11:09.877Z,9.70
2022-11-27T18:13:36.785Z,10.57
2022-11-27T18:16:08.353Z,11.75
2022-11-27T18:18:35.392Z,10.85
2022-11-27T18:21:08.905Z,11.55
2022-11-27T18:24:00.222Z,11.85
2022-11-27T18:26:52.575Z,9.23
2022-11-27T18:29:15.733Z,9.30
2022-11-27T18:31:42.548Z,8.90
2022-11-27T18:34:09.324Z,8.93
2022-11-27T18:36:35.956Z,11.45
2022-11-27T18:39:04.565Z,10.57
2022-11-27T18:41:31.208Z,8.05
2022-11-27T18:43:58.849Z,8.40
2022-11-27T18:46:26.160Z,8.90
2022-11-27T18:48:52.914Z,8.43
2022-11-27T18:51:21.824Z,7.57
2022-11-27T18:53:48.757Z,8.98
2022-11-27T18:56:16.623Z,8.60
2022-11-27T18:58:46.991Z,10.73
2022-11-27T19:01:15.153Z,12.20
2022-11-27T19:03:43.081Z,10.82
2022-11-27T19:06:11.624Z,8.77
2022-11-27T19:08:38.541Z,12.30
2022-11-27T19:11:09.798Z,7.55
2022-11-27T19:13:37.043Z,8.05
2022-11-27T19:16:08.583Z,9.27
2022-11-27T19:18:37.003Z,9.38
2022-11-27T19:21:14.241Z,7.82
2022-11-27T19:23:41.562Z,10.73
2022-11-27T19:26:09.232Z,10.85
2022-11-27T19:28:36.252Z,8.93
2022-11-27T19:31:04.194Z,9.93
2022-11-27T19:33:31.556Z,8.43
2022-11-27T19:36:01.970Z,10.00
2022-11-27T19:38:29.003Z,10.80
2022-11-27T19:40:55.689Z,10.50
2022-11-27T19:43:23.425Z,9.07
2022-11-27T19:45:50.203Z,10.25
2022-11-27T19:48:22.686Z,11.57
2022-11-27T19:50:51.798Z,10.75
2022-11-27T19:53:19.291Z,11.52
2022-11-27T19:55:52.571Z,9.82
2022-11-27T19:58:19.206Z,13.75
2022-11-27T20:00:46.394Z,14.18
2022-11-27T20:03:13.133Z,13.35
2022-11-27T20:05:40.008Z,14.88
2022-11-27T20:08:06.748Z,10.85
2022-11-27T20:10:33.492Z,10.07
2022-11-27T20:13:01.230Z,10.25
2022-11-27T20:15:28.960Z,12.63
2022-11-27T20:17:55.832Z,9.27
2022-11-27T20:20:22.563Z,10.27
2022-11-27T20:22:50.369Z,10.48
2022-11-27T20:25:19.844Z,8.88
2022-11-27T20:27:48.475Z,11.35
2022-11-27T20:30:15.242Z,9.65
2022-11-27T20:32:42.092Z,12.10
2022-11-27T20:35:09.354Z,13.95
2022-11-27T20:37:35.998Z,15.93
2022-11-27T20:40:03.635Z,19.27
2022-11-27T20:42:30.482Z,14.77
2022-11-27T20:44:57.238Z,12.10
2022-11-27T20:47:24.001Z,13.57
2022-11-27T20:49:50.778Z,11.57
2022-11-27T20:52:17.568Z,12.93
2022-11-27T20:54:44.264Z,12.60
2022-11-27T20:57:14.257Z,17.15
2022-11-27T20:59:41.917Z,18.50
2022-11-27T21:02:12.261Z,22.17
2022-11-27T21:04:39.024Z,22.65
2022-11-27T21:07:05.783Z,22.58
2022-11-27T21:09:32.568Z,23.20
2022-11-27T21:11:59.190Z,20.67
2022-11-27T21:14:26.312Z,23.17
2022-11-27T21:16:53.910Z,25.65
2022-11-27T21:19:25.440Z,24.20
2022-11-27T21:21:54.494Z,20.50
2022-11-27T21:24:22.366Z,24.23
2022-11-27T21:26:50.077Z,24.58
2022-11-27T21:29:16.937Z,20.67
2022-11-27T21:31:46.784Z,23.88
2022-11-27T21:34:14.914Z,19.95
2022-11-27T21:36:41.779Z,20.38
2022-11-27T21:39:08.794Z,20.48
2022-11-27T21:41:35.980Z,19.85
2022-11-27T21:44:04.251Z,21.92
2022-11-27T21:46:32.056Z,19.92
2022-11-27T21:48:59.643Z,21.90
2022-11-27T21:51:26.830Z,24.00
2022-11-27T21:53:58.088Z,23.73
2022-11-27T21:56:25.664Z,22.60
2022-11-27T21:58:53.220Z,24.60
2022-11-27T22:01:21.623Z,22.25
2022-11-27T22:03:50.266Z,27.42
2022-11-27T22:06:18.544Z,23.25
2022-11-27T22:08:45.932Z,24.52
2022-11-27T22:11:14.121Z,27.02
2022-11-27T22:13:41.643Z,24.20
2022-11-27T22:16:18.281Z,26.73
2022-11-27T22:18:45.434Z,26.58
2022-11-27T22:21:12.640Z,24.90
2022-11-27T22:23:39.956Z,30.90
2022-11-27T22:26:08.138Z,25.73
2022-11-27T22:28:36.219Z,29.50
2022-11-27T22:31:16.725Z,28.52
2022-11-27T22:33:43.971Z,26.50
2022-11-27T22:36:17.031Z,25.13
2022-11-27T22:38:44.934Z,26.17
2022-11-27T22:41:12.455Z,27.08
2022-11-27T22:43:39.455Z,25.77
2022-11-27T22:46:08.105Z,24.00
2022-11-27T22:48:34.894Z,25.33
2022-11-27T22:51:01.847Z,26.83
2022-11-27T22:53:29.132Z,24.67
2022-11-27T22:55:56.039Z,23.20
2022-11-27T22:58:22.864Z,24.90
2022-11-27T23:00:56.722Z,25.52
2022-11-27T23:03:23.571Z,26.70
2022-11-27T23:05:50.506Z,25.40
2022-11-27T23:08:18.936Z,26.33
2022-11-27T23:10:48.999Z,26.58
2022-11-27T23:13:15.970Z,25.40
2022-11-27T23:15:43.023Z,26.23
2022-11-27T23:18:09.872Z,25.98
2022-11-27T23:20:40.196Z,27.13
2022-11-27T23:23:06.840Z,25.77
2022-11-27T23:25:33.534Z,24.80
2022-11-27T23:28:00.186Z,24.60
2022-11-27T23:30:27.170Z,25.00
2022-11-27T23:32:53.874Z,23.00
2022-11-27T23:35:20.515Z,25.38
2022-11-27T23:37:47.147Z,25.42
2022-11-27T23:40:14.991Z,22.85
2022-11-27T23:42:42.806Z,24.60
2022-11-27T23:45:09.708Z,26.10
2022-11-27T23:47:36.342Z,27.10
2022-11-27T23:50:02.986Z,25.88
2022-11-27T23:52:29.583Z,22.35
2022-11-27T23:54:56.168Z,25.77
2022-11-27T23:57:22.771Z,29.70
2022-11-27T23:59:49.383Z,27.48
